createdAt,value
2022-08-19T00:01:40.473Z,9.95
2022-08-19T00:04:11.399Z,11.37
2022-08-19T00:06:40.579Z,11.68
2022-08-19T00:09:10.621Z,10.43
2022-08-19T00:11:38.789Z,10.93
2022-08-19T00:14:08.397Z,10.80
2022-08-19T00:16:36.749Z,10.88
2022-08-19T00:19:04.672Z,9.30
2022-08-19T00:21:32.383Z,11.27
2022-08-19T00:24:00.642Z,9.88
2022-08-19T00:26:29.491Z,12.57
2022-08-19T00:28:57.369Z,11.68
2022-08-19T00:31:26.164Z,11.48
2022-08-19T00:33:53.595Z,11.27
2022-08-19T00:36:21.695Z,10.98
2022-08-19T00:38:52.656Z,10.48
2022-08-19T00:41:22.258Z,12.43
2022-08-19T00:44:07.220Z,13.85
2022-08-19T00:46:37.654Z,10.68
2022-08-19T00:49:22.388Z,13.10
2022-08-19T00:51:58.365Z,11.73
2022-08-19T00:54:31.236Z,10.77
2022-08-19T00:57:00.459Z,11.02
2022-08-19T01:00:00.476Z,13.48
2022-08-19T01:02:17.811Z,11.02
2022-08-19T01:04:45.544Z,11.82
2022-08-19T01:07:15.173Z,11.20
2022-08-19T01:09:45.290Z,12.53
2022-08-19T01:12:12.833Z,10.20
2022-08-19T01:14:41.362Z,11.15
2022-08-19T01:17:10.580Z,11.82
2022-08-19T01:19:43.759Z,10.10
2022-08-19T01:22:21.612Z,10.70
2022-08-19T01:24:54.000Z,11.27
2022-08-19T01:27:23.033Z,10.15
2022-08-19T01:29:52.126Z,9.52
2022-08-19T01:32:33.178Z,10.90
2022-08-19T01:35:03.733Z,10.38
2022-08-19T01:37:32.375Z,11.10
2022-08-19T01:39:59.850Z,11.12
2022-08-19T01:42:30.575Z,11.12
2022-08-19T01:44:58.430Z,10.43
2022-08-19T01:47:25.870Z,10.70
2022-08-19T01:49:53.578Z,12.13
2022-08-19T01:52:21.060Z,11.07
2022-08-19T01:54:48.479Z,10.90
2022-08-19T01:57:16.750Z,11.57
2022-08-19T01:59:45.120Z,10.73
2022-08-19T02:02:12.866Z,10.73
2022-08-19T02:04:40.959Z,10.68
2022-08-19T02:07:09.153Z,11.60
2022-08-19T02:09:37.093Z,10.95
2022-08-19T02:12:05.853Z,9.85
2022-08-19T02:14:35.265Z,11.73
2022-08-19T02:17:03.527Z,10.35
2022-08-19T02:19:33.529Z,11.45
2022-08-19T02:22:01.374Z,11.47
2022-08-19T02:24:28.848Z,9.32
2022-08-19T02:26:56.767Z,11.05
2022-08-19T02:29:24.187Z,11.15
2022-08-19T02:31:52.684Z,11.60
2022-08-19T02:34:20.467Z,12.57
2022-08-19T02:36:51.958Z,11.48
2022-08-19T02:39:20.385Z,12.07
2022-08-19T02:41:47.814Z,11.55
2022-08-19T02:44:29.969Z,10.85
2022-08-19T02:46:59.129Z,10.55
2022-08-19T02:49:26.567Z,10.98
2022-08-19T02:51:54.015Z,12.20
2022-08-19T02:54:21.730Z,11.90
2022-08-19T02:56:50.101Z,12.18
2022-08-19T02:59:17.559Z,11.60
2022-08-19T03:01:48.070Z,12.10
2022-08-19T03:04:16.645Z,12.43
2022-08-19T03:06:46.115Z,12.40
2022-08-19T03:09:14.969Z,12.50
2022-08-19T03:11:42.388Z,15.25
2022-08-19T03:14:10.941Z,11.82
2022-08-19T03:16:50.736Z,10.77
2022-08-19T03:19:19.542Z,11.07
2022-08-19T03:21:47.321Z,13.07
2022-08-19T03:24:16.415Z,15.60
2022-08-19T03:26:47.061Z,11.30
2022-08-19T03:29:15.988Z,10.50
2022-08-19T03:31:57.612Z,10.90
2022-08-19T03:34:29.415Z,11.75
2022-08-19T03:36:59.986Z,12.80
2022-08-19T03:39:28.293Z,11.68
2022-08-19T03:42:29.273Z,17.87
2022-08-19T03:44:51.054Z,10.75
2022-08-19T03:47:19.494Z,10.45
2022-08-19T03:49:47.347Z,11.27
2022-08-19T03:52:15.257Z,11.75
2022-08-19T03:54:43.047Z,11.35
2022-08-19T03:57:10.556Z,12.80
2022-08-19T03:59:38.853Z,11.35
2022-08-19T04:02:11.921Z,12.32
2022-08-19T04:04:41.251Z,12.85
2022-08-19T04:07:10.464Z,12.45
2022-08-19T04:09:38.118Z,11.17
2022-08-19T04:12:06.604Z,12.98
2022-08-19T04:14:34.724Z,11.30
2022-08-19T04:17:05.635Z,11.07
2022-08-19T04:19:35.463Z,11.38
2022-08-19T04:22:03.612Z,12.13
2022-08-19T04:24:31.355Z,11.15
2022-08-19T04:27:01.201Z,11.55
2022-08-19T04:29:28.881Z,11.50
2022-08-19T04:31:57.324Z,11.20
2022-08-19T04:34:27.218Z,18.05
2022-08-19T04:36:56.021Z,12.13
2022-08-19T04:39:48.057Z,12.07
2022-08-19T04:42:36.616Z,11.80
2022-08-19T04:45:12.518Z,11.47
2022-08-19T04:47:47.444Z,11.52
2022-08-19T04:50:19.814Z,11.52
2022-08-19T04:52:47.628Z,14.47
2022-08-19T04:55:15.505Z,12.25
2022-08-19T04:57:43.039Z,12.23
2022-08-19T05:00:11.632Z,14.13
2022-08-19T05:02:39.799Z,11.48
2022-08-19T05:05:07.775Z,15.00
2022-08-19T05:07:35.807Z,11.48
2022-08-19T05:10:05.859Z,12.50
2022-08-19T05:12:33.350Z,12.32
2022-08-19T05:15:01.786Z,12.15
2022-08-19T05:17:33.299Z,11.45
2022-08-19T05:20:25.071Z,12.25
2022-08-19T05:22:53.402Z,10.82
2022-08-19T05:25:22.662Z,12.47
2022-08-19T05:27:50.543Z,13.43
2022-08-19T05:30:18.628Z,13.98
2022-08-19T05:32:54.038Z,11.35
2022-08-19T05:35:25.156Z,11.88
2022-08-19T05:37:55.215Z,11.63
2022-08-19T05:40:26.819Z,11.52
2022-08-19T05:42:55.470Z,12.43
2022-08-19T05:45:23.040Z,11.73
2022-08-19T05:47:50.413Z,11.32
2022-08-19T05:50:18.653Z,12.32
2022-08-19T05:52:54.365Z,13.47
2022-08-19T05:55:23.408Z,10.85
2022-08-19T05:57:50.825Z,11.15
2022-08-19T06:00:22.655Z,13.30
2022-08-19T06:02:52.598Z,9.93
2022-08-19T06:05:21.127Z,13.43
2022-08-19T06:07:48.665Z,14.20
2022-08-19T06:10:16.535Z,10.57
2022-08-19T06:12:43.942Z,13.30
2022-08-19T06:15:13.655Z,12.37
2022-08-19T06:17:42.759Z,13.05
2022-08-19T06:20:14.535Z,12.88
2022-08-19T06:22:44.235Z,15.75
2022-08-19T06:25:12.921Z,12.43
2022-08-19T06:27:53.366Z,12.50
2022-08-19T06:30:29.083Z,11.77
2022-08-19T06:32:56.904Z,11.63
2022-08-19T06:35:24.378Z,11.07
2022-08-19T06:37:53.615Z,13.68
2022-08-19T06:40:21.258Z,14.57
2022-08-19T06:42:54.292Z,10.50
2022-08-19T06:45:34.498Z,14.00
2022-08-19T06:48:03.800Z,11.70
2022-08-19T06:50:31.689Z,13.45
2022-08-19T06:53:03.572Z,11.20
2022-08-19T06:55:33.315Z,11.48
2022-08-19T06:58:05.519Z,12.57
2022-08-19T07:00:34.041Z,15.43
2022-08-19T07:03:06.021Z,10.25
2022-08-19T07:05:41.273Z,11.38
2022-08-19T07:08:14.185Z,12.75
2022-08-19T07:10:46.070Z,11.82
2022-08-19T07:13:13.716Z,12.33
2022-08-19T07:15:41.416Z,15.90
2022-08-19T07:18:11.921Z,16.10
2022-08-19T07:20:41.831Z,12.82
2022-08-19T07:23:16.084Z,13.85
2022-08-19T07:25:45.006Z,12.55
2022-08-19T07:28:24.252Z,13.20
2022-08-19T07:30:53.288Z,13.75
2022-08-19T07:33:21.299Z,13.32
2022-08-19T07:35:48.780Z,11.50
2022-08-19T07:38:16.703Z,12.30
2022-08-19T07:40:47.247Z,13.48
2022-08-19T07:43:17.744Z,14.00
2022-08-19T07:45:51.387Z,11.93
2022-08-19T07:48:19.080Z,11.70
2022-08-19T07:50:46.519Z,15.30
2022-08-19T07:53:14.241Z,10.80
2022-08-19T07:55:43.875Z,15.10
2022-08-19T07:58:18.587Z,10.68
2022-08-19T08:00:48.800Z,12.20
2022-08-19T08:03:19.432Z,13.38
2022-08-19T08:06:06.203Z,12.90
2022-08-19T08:08:52.826Z,12.37
2022-08-19T08:11:21.122Z,9.75
2022-08-19T08:14:00.811Z,15.85
2022-08-19T08:16:32.242Z,10.15
2022-08-19T08:19:00.403Z,11.32
2022-08-19T08:21:28.880Z,10.20
2022-08-19T08:23:56.750Z,10.40
2022-08-19T08:26:26.054Z,11.95
2022-08-19T08:28:54.078Z,10.03
2022-08-19T08:31:21.569Z,9.65
2022-08-19T08:33:49.442Z,9.88
2022-08-19T08:36:17.698Z,9.45
2022-08-19T08:38:49.091Z,8.55
2022-08-19T08:41:27.094Z,11.18
2022-08-19T08:43:58.465Z,10.00
2022-08-19T08:46:49.631Z,9.90
2022-08-19T08:49:29.254Z,11.40
2022-08-19T08:52:10.937Z,10.70
2022-08-19T08:54:48.934Z,9.35
2022-08-19T08:57:37.045Z,8.93
2022-08-19T09:00:15.622Z,8.93
2022-08-19T09:02:44.671Z,12.05
2022-08-19T09:05:22.250Z,9.32
2022-08-19T09:08:06.897Z,9.45
2022-08-19T09:10:49.831Z,10.33
2022-08-19T09:13:37.939Z,8.82
2022-08-19T09:16:17.542Z,9.20
2022-08-19T09:18:54.924Z,9.35
2022-08-19T09:21:26.037Z,8.10
2022-08-19T09:23:59.586Z,8.82
2022-08-19T09:26:47.421Z,11.85
2022-08-19T09:29:16.027Z,8.93
2022-08-19T09:31:45.209Z,9.15
2022-08-19T09:34:21.397Z,9.30
2022-08-19T09:36:54.576Z,9.80
2022-08-19T09:39:23.016Z,10.60
2022-08-19T09:41:51.280Z,8.60
2022-08-19T09:44:19.258Z,10.03
2022-08-19T09:46:48.399Z,9.00
2022-08-19T09:49:22.772Z,9.95
2022-08-19T09:51:52.632Z,8.43
2022-08-19T09:54:23.539Z,9.68
2022-08-19T09:56:53.905Z,10.70
2022-08-19T09:59:22.005Z,11.02
2022-08-19T10:01:49.617Z,10.40
2022-08-19T10:04:20.376Z,9.07
2022-08-19T10:06:53.457Z,11.80
2022-08-19T10:09:33.508Z,10.38
2022-08-19T10:12:03.321Z,11.47
2022-08-19T10:14:31.835Z,10.30
2022-08-19T10:17:01.302Z,9.75
2022-08-19T10:19:41.100Z,10.18
2022-08-19T10:22:23.962Z,11.15
2022-08-19T10:24:54.101Z,9.77
2022-08-19T10:27:22.232Z,10.90
2022-08-19T10:29:50.028Z,8.55
2022-08-19T10:32:17.824Z,10.00
2022-08-19T10:34:48.672Z,9.80
2022-08-19T10:37:28.796Z,9.20
2022-08-19T10:39:59.011Z,10.25
2022-08-19T10:42:26.529Z,11.50
2022-08-19T10:44:54.106Z,8.20
2022-08-19T10:47:24.961Z,10.48
2022-08-19T10:50:13.612Z,10.10
2022-08-19T10:52:49.874Z,10.02
2022-08-19T10:55:43.253Z,11.63
2022-08-19T10:58:16.435Z,11.47
2022-08-19T11:00:44.955Z,9.82
2022-08-19T11:03:12.952Z,9.70
2022-08-19T11:05:40.996Z,9.57
2022-08-19T11:08:23.074Z,13.07
2022-08-19T11:11:01.712Z,12.40
2022-08-19T11:13:33.403Z,12.33
2022-08-19T11:16:07.321Z,14.82
2022-08-19T11:18:40.596Z,15.05
2022-08-19T11:21:20.112Z,13.93
2022-08-19T11:23:50.963Z,14.77
2022-08-19T11:26:20.449Z,17.85
2022-08-19T11:28:47.986Z,17.98
2022-08-19T11:31:18.424Z,17.75
2022-08-19T11:33:47.937Z,18.52
2022-08-19T11:36:17.105Z,18.02
2022-08-19T11:38:46.057Z,16.83
2022-08-19T11:41:16.102Z,15.88
2022-08-19T11:43:43.740Z,16.12
2022-08-19T11:46:14.725Z,15.10
2022-08-19T11:48:43.024Z,15.32
2022-08-19T11:51:13.615Z,15.35
2022-08-19T11:53:41.916Z,17.00
2022-08-19T11:56:11.781Z,14.75
2022-08-19T11:58:40.326Z,16.00
2022-08-19T12:01:09.619Z,17.05
2022-08-19T12:03:38.283Z,15.80
2022-08-19T12:06:07.935Z,17.55
2022-08-19T12:08:35.490Z,17.52
2022-08-19T12:11:03.210Z,16.77
2022-08-19T12:13:31.891Z,17.85
2022-08-19T12:16:06.438Z,17.08
2022-08-19T12:18:34.785Z,18.92
2022-08-19T12:21:02.434Z,17.95
2022-08-19T12:23:30.269Z,14.40
2022-08-19T12:25:58.319Z,16.85
2022-08-19T12:28:26.280Z,17.27
2022-08-19T12:30:54.457Z,14.98
2022-08-19T12:33:25.991Z,15.30
2022-08-19T12:35:53.472Z,13.82
2022-08-19T12:38:21.001Z,11.48
2022-08-19T12:40:49.565Z,12.30
2022-08-19T12:43:17.035Z,12.73
2022-08-19T12:45:47.075Z,10.27
2022-08-19T12:48:33.151Z,9.52
2022-08-19T12:51:07.617Z,9.45
2022-08-19T12:53:35.308Z,12.40
2022-08-19T12:56:08.156Z,10.83
2022-08-19T12:58:49.051Z,13.45
2022-08-19T13:01:20.438Z,11.65
2022-08-19T13:03:53.162Z,10.98
2022-08-19T13:06:20.937Z,9.65
2022-08-19T13:08:48.461Z,9.18
2022-08-19T13:11:18.818Z,12.48
2022-08-19T13:13:48.390Z,12.30
2022-08-19T13:16:16.162Z,10.57
2022-08-19T13:18:48.312Z,8.98
2022-08-19T13:21:16.294Z,11.95
2022-08-19T13:23:44.299Z,10.80
2022-08-19T13:26:14.372Z,9.50
2022-08-19T13:29:02.694Z,13.87
2022-08-19T13:31:51.950Z,11.73
2022-08-19T13:34:27.077Z,10.52
2022-08-19T13:36:58.804Z,12.05
2022-08-19T13:39:26.721Z,15.15
2022-08-19T13:41:54.225Z,13.25
2022-08-19T13:44:22.032Z,17.62
2022-08-19T13:46:53.984Z,18.17
2022-08-19T13:49:24.077Z,17.65
2022-08-19T13:51:51.808Z,16.37
2022-08-19T13:54:19.205Z,16.75
2022-08-19T13:56:46.965Z,15.70
2022-08-19T13:59:14.852Z,11.77
2022-08-19T14:01:42.699Z,12.68
2022-08-19T14:04:10.542Z,13.23
2022-08-19T14:06:38.064Z,11.93
2022-08-19T14:09:06.635Z,10.80
2022-08-19T14:11:34.321Z,11.37
2022-08-19T14:14:01.782Z,16.60
2022-08-19T14:16:31.343Z,14.25
2022-08-19T14:18:59.233Z,14.02
2022-08-19T14:21:27.204Z,14.60
2022-08-19T14:23:55.059Z,12.75
2022-08-19T14:26:23.513Z,15.18
2022-08-19T14:28:53.773Z,12.68
2022-08-19T14:31:22.473Z,13.80
2022-08-19T14:33:51.395Z,11.12
2022-08-19T14:36:20.707Z,13.47
2022-08-19T14:38:49.661Z,11.75
2022-08-19T14:41:20.924Z,11.75
2022-08-19T14:43:51.111Z,12.80
2022-08-19T14:46:21.702Z,10.85
2022-08-19T14:48:51.725Z,12.15
2022-08-19T14:51:21.371Z,10.18
2022-08-19T14:53:52.349Z,12.77
2022-08-19T14:56:23.864Z,11.02
2022-08-19T14:58:54.357Z,11.93
2022-08-19T15:01:23.217Z,11.68
2022-08-19T15:03:53.749Z,13.62
2022-08-19T15:06:23.199Z,13.03
2022-08-19T15:08:52.801Z,9.25
2022-08-19T15:11:23.659Z,12.18
2022-08-19T15:13:52.192Z,10.57
2022-08-19T15:16:20.251Z,11.35
2022-08-19T15:18:51.272Z,10.63
2022-08-19T15:21:26.737Z,12.48
2022-08-19T15:23:57.221Z,10.65
2022-08-19T15:26:26.185Z,10.25
2022-08-19T15:28:53.630Z,12.00
2022-08-19T15:31:28.011Z,11.37
2022-08-19T15:33:58.842Z,10.25
2022-08-19T15:36:27.421Z,14.48
2022-08-19T15:38:56.195Z,12.07
2022-08-19T15:41:30.591Z,13.27
2022-08-19T15:44:04.775Z,12.70
2022-08-19T15:46:33.964Z,13.55
2022-08-19T15:49:01.985Z,12.27
2022-08-19T15:51:31.516Z,12.95
2022-08-19T15:54:00.161Z,15.00
2022-08-19T15:56:57.664Z,15.73
2022-08-19T15:59:47.427Z,11.40
2022-08-19T16:02:35.127Z,15.63
2022-08-19T16:05:26.061Z,11.97
2022-08-19T16:07:54.673Z,12.65
2022-08-19T16:10:26.298Z,12.75
2022-08-19T16:12:56.918Z,15.65
2022-08-19T16:15:27.994Z,14.45
2022-08-19T16:17:57.423Z,15.82
2022-08-19T16:20:28.004Z,12.18
2022-08-19T16:22:58.582Z,16.70
2022-08-19T16:25:30.075Z,14.30
2022-08-19T16:28:06.402Z,12.55
2022-08-19T16:30:35.355Z,14.10
2022-08-19T16:33:02.936Z,14.80
2022-08-19T16:35:32.286Z,10.75
2022-08-19T16:38:00.119Z,12.98
2022-08-19T16:40:27.947Z,18.30
2022-08-19T16:42:56.536Z,15.68
2022-08-19T16:45:24.403Z,15.38
2022-08-19T16:47:52.074Z,14.75
2022-08-19T16:50:25.386Z,14.25
2022-08-19T16:53:07.447Z,15.27
2022-08-19T16:55:34.874Z,13.57
2022-08-19T16:58:04.928Z,11.25
2022-08-19T17:00:33.193Z,11.00
2022-08-19T17:03:14.734Z,11.63
2022-08-19T17:05:43.522Z,11.52
2022-08-19T17:08:11.034Z,11.55
2022-08-19T17:10:39.053Z,11.13
2022-08-19T17:13:07.425Z,11.37
2022-08-19T17:15:35.070Z,15.52
2022-08-19T17:18:04.256Z,12.52
2022-08-19T17:20:33.104Z,13.73
2022-08-19T17:23:00.908Z,15.27
2022-08-19T17:25:31.049Z,16.70
2022-08-19T17:28:07.926Z,12.17
2022-08-19T17:30:35.454Z,11.00
2022-08-19T17:33:04.458Z,14.38
2022-08-19T17:35:32.658Z,15.00
2022-08-19T17:38:08.061Z,14.25
2022-08-19T17:40:39.329Z,10.00
2022-08-19T17:43:08.841Z,15.02
2022-08-19T17:45:36.965Z,11.95
2022-08-19T17:48:05.296Z,11.80
2022-08-19T17:50:35.180Z,15.17
2022-08-19T17:53:04.454Z,11.63
2022-08-19T17:55:34.276Z,15.05
2022-08-19T17:58:05.091Z,9.50
2022-08-19T18:00:35.960Z,14.98
2022-08-19T18:03:05.686Z,10.68
2022-08-19T18:05:40.392Z,12.00
2022-08-19T18:08:10.564Z,9.40
2022-08-19T18:10:38.323Z,12.20
2022-08-19T18:13:17.696Z,16.27
2022-08-19T18:15:45.638Z,15.02
2022-08-19T18:18:15.394Z,15.73
2022-08-19T18:20:44.204Z,13.93
2022-08-19T18:23:43.852Z,15.70
2022-08-19T18:26:00.183Z,14.15
2022-08-19T18:28:27.997Z,16.10
2022-08-19T18:30:56.350Z,13.30
2022-08-19T18:33:25.452Z,15.70
2022-08-19T18:35:53.320Z,15.70
2022-08-19T18:38:40.969Z,21.73
2022-08-19T18:41:27.812Z,21.08
2022-08-19T18:44:13.749Z,17.17
2022-08-19T18:47:00.119Z,21.27
2022-08-19T18:49:30.421Z,18.73
2022-08-19T18:51:58.655Z,28.40
2022-08-19T18:54:29.004Z,22.70
2022-08-19T18:56:56.515Z,25.00
2022-08-19T18:59:27.067Z,21.40
2022-08-19T19:01:57.227Z,21.33
2022-08-19T19:04:37.338Z,21.27
2022-08-19T19:07:06.158Z,23.70
2022-08-19T19:09:34.302Z,27.00
2022-08-19T19:12:03.825Z,21.45
2022-08-19T19:14:49.181Z,20.42
2022-08-19T19:17:17.791Z,21.37
2022-08-19T19:19:45.725Z,19.83
2022-08-19T19:22:18.390Z,17.27
2022-08-19T19:24:46.322Z,17.33
2022-08-19T19:27:15.669Z,16.35
2022-08-19T19:29:43.122Z,17.42
2022-08-19T19:32:19.907Z,13.80
2022-08-19T19:34:47.924Z,15.88
2022-08-19T19:37:17.037Z,19.33
2022-08-19T19:39:46.526Z,18.17
2022-08-19T19:42:20.108Z,18.95
2022-08-19T19:44:50.649Z,18.45
2022-08-19T19:47:19.335Z,17.92
2022-08-19T19:50:13.852Z,18.52
2022-08-19T19:52:39.943Z,16.98
2022-08-19T19:55:09.642Z,17.02
2022-08-19T19:57:39.384Z,16.15
2022-08-19T20:00:09.484Z,16.08
2022-08-19T20:02:39.900Z,15.45
2022-08-19T20:05:07.810Z,19.50
2022-08-19T20:07:54.180Z,17.67
2022-08-19T20:10:22.258Z,16.10
2022-08-19T20:12:52.040Z,16.65
2022-08-19T20:15:19.475Z,16.37
2022-08-19T20:17:47.666Z,15.52
2022-08-19T20:20:16.824Z,18.03
2022-08-19T20:22:44.551Z,18.12
2022-08-19T20:25:13.116Z,18.95
2022-08-19T20:27:41.497Z,18.10
2022-08-19T20:30:13.690Z,17.87
2022-08-19T20:32:48.212Z,17.05
2022-08-19T20:35:18.815Z,18.83
2022-08-19T20:37:46.978Z,17.23
2022-08-19T20:40:16.423Z,20.35
2022-08-19T20:42:53.398Z,20.90
2022-08-19T20:45:33.613Z,21.55
2022-08-19T20:48:05.416Z,19.40
2022-08-19T20:50:35.308Z,19.62
2022-08-19T20:53:14.890Z,17.85
2022-08-19T20:55:49.214Z,20.00
2022-08-19T20:58:19.662Z,20.20
2022-08-19T21:00:51.370Z,20.45
2022-08-19T21:03:23.124Z,20.37
2022-08-19T21:05:50.950Z,20.73
2022-08-19T21:08:21.235Z,19.97
2022-08-19T21:10:50.563Z,21.23
2022-08-19T21:13:20.052Z,22.23
2022-08-19T21:15:48.274Z,19.03
2022-08-19T21:18:17.469Z,20.60
2022-08-19T21:20:49.722Z,20.05
2022-08-19T21:23:23.522Z,20.02
2022-08-19T21:25:54.994Z,20.50
2022-08-19T21:28:34.499Z,22.62
2022-08-19T21:31:05.875Z,20.80
2022-08-19T21:33:33.772Z,21.62
2022-08-19T21:36:01.352Z,22.30
2022-08-19T21:38:28.923Z,22.17
2022-08-19T21:40:56.895Z,23.30
2022-08-19T21:43:24.766Z,21.02
2022-08-19T21:45:52.594Z,22.92
2022-08-19T21:48:23.302Z,20.80
2022-08-19T21:50:51.006Z,21.90
2022-08-19T21:53:19.143Z,23.98
2022-08-19T21:55:53.575Z,20.52
2022-08-19T21:58:28.187Z,22.17
2022-08-19T22:01:00.008Z,19.87
2022-08-19T22:03:28.378Z,16.98
2022-08-19T22:05:56.024Z,19.48
2022-08-19T22:08:23.684Z,19.65
2022-08-19T22:10:53.394Z,15.80
2022-08-19T22:13:20.877Z,19.77
2022-08-19T22:15:50.441Z,16.12
2022-08-19T22:18:19.121Z,18.25
2022-08-19T22:20:47.854Z,18.87
2022-08-19T22:23:15.315Z,18.02
2022-08-19T22:25:46.567Z,17.98
2022-08-19T22:28:18.738Z,17.30
2022-08-19T22:30:56.291Z,17.05
2022-08-19T22:33:25.903Z,17.67
2022-08-19T22:35:53.743Z,18.52
2022-08-19T22:38:22.034Z,19.62
2022-08-19T22:40:50.937Z,16.80
2022-08-19T22:43:21.635Z,17.67
2022-08-19T22:45:51.067Z,15.82
2022-08-19T22:48:21.052Z,18.15
2022-08-19T22:51:08.488Z,15.57
2022-08-19T22:53:38.823Z,16.12
2022-08-19T22:56:09.928Z,16.27
2022-08-19T22:58:40.928Z,15.85
2022-08-19T23:01:08.796Z,19.77
2022-08-19T23:03:36.382Z,17.73
2022-08-19T23:06:04.125Z,15.70
2022-08-19T23:08:32.131Z,16.67
2022-08-19T23:11:02.290Z,17.73
2022-08-19T23:13:37.519Z,15.97
2022-08-19T23:16:08.205Z,16.87
2022-08-19T23:18:35.676Z,14.95
2022-08-19T23:21:04.486Z,14.70
2022-08-19T23:23:36.713Z,15.13
2022-08-19T23:26:10.421Z,16.92
2022-08-19T23:28:58.399Z,15.85
2022-08-19T23:31:26.873Z,18.20
2022-08-19T23:33:54.727Z,11.47
2022-08-19T23:36:22.974Z,11.88
2022-08-19T23:38:52.296Z,15.90
2022-08-19T23:41:22.041Z,13.52
2022-08-19T23:43:50.862Z,15.68
2022-08-19T23:46:27.945Z,15.98
2022-08-19T23:48:56.869Z,15.30
2022-08-19T23:51:26.755Z,14.87
2022-08-19T23:53:54.505Z,14.23
2022-08-19T23:56:22.009Z,12.37
2022-08-19T23:58:49.807Z,11.93
